Zawiyat Shammas, Egypt
Current Conditions -  °F | °C
As of 5:00 AM on Sunday 23 Nov 2014 (Local Time) from HEMM Reporting Station
Scattered Clouds Scattered Clouds  
Wind Chill: 63°   Ceiling: Unl
Heat Index: 63°   Visibility: 6mi
Dew Point: 52°   Wind: 12mph
Humidity: 68%   Direction: 260°W
Pressure: 30.09"   Gusts: NA
Location:  31.52°N, 26.4°E
Report Text: HEMM 230300Z 26010KT 9999 FEW020 SCT025 17/11 Q1019 NOSIG
Loading
Personal Weather Stations






























Interactive Weather Map New forecast layout! Learn more

10-Day Weather Forecast

Advertisements
Track Severe Weather on mobile